Time;durP1;ratioP1;P1;durP2;ratioP2;P2;SDS_P1;SDS_P2;PMS_P1;PMS_P2;Temp;Humidity;BMP_temperature;BMP_pressure;BME280_temperature;BME280_humidity;BME280_pressure;Samples;Min_cycle;Max_cycle;Signal;HPM_P1;HPM_P2
2023/07/16 00:00:22;;;;;;;1.40;1.00;;;;;;;;;;5003120;28;20228;-79
2023/07/16 00:02:52;;;;;;;1.52;1.20;;;;;;;;;;5030969;28;20223;-79
2023/07/16 00:05:18;;;;;;;1.95;1.02;;;;;;;;;;5021434;28;20233;-79
2023/07/16 00:07:43;;;;;;;1.33;1.23;;;;;;;;;;5012555;28;20315;-78
2023/07/16 00:10:11;;;;;;;1.00;1.00;;;;;;;;;;5008580;28;21014;-79
2023/07/16 00:12:37;;;;;;;1.58;1.13;;;;;;;;;;5017863;28;20227;-79
2023/07/16 00:15:03;;;;;;;1.15;1.05;;;;;;;;;;5042736;28;20230;-80
2023/07/16 00:17:28;;;;;;;1.80;0.88;;;;;;;;;;5013040;28;20232;-79
2023/07/16 00:19:54;;;;;;;2.08;1.30;;;;;;;;;;4989386;28;20228;-79
2023/07/16 00:22:19;;;;;;;1.42;1.33;;;;;;;;;;5023524;28;20234;-79
2023/07/16 00:24:47;;;;;;;1.20;1.10;;;;;;;;;;5005765;28;20602;-79
2023/07/16 00:27:13;;;;;;;1.30;1.20;;;;;;;;;;5039456;28;20240;-79
2023/07/16 00:29:38;;;;;;;1.45;1.00;;;;;;;;;;5036164;28;20687;-79
2023/07/16 00:32:04;;;;;;;4.93;1.30;;;;;;;;;;5010270;28;20730;-79
2023/07/16 00:34:32;;;;;;;1.30;1.20;;;;;;;;;;4995713;28;20298;-79
2023/07/16 00:37:01;;;;;;;5.00;1.33;;;;;;;;;;5025528;28;20223;-79
2023/07/16 00:39:30;;;;;;;1.67;1.10;;;;;;;;;;5037394;28;20224;-78
2023/07/16 00:41:55;;;;;;;3.72;1.20;;;;;;;;;;5014917;28;20227;-78
2023/07/16 00:44:23;;;;;;;1.55;1.30;;;;;;;;;;4989098;28;20223;-78
2023/07/16 00:46:53;;;;;;;2.08;1.15;;;;;;;;;;5003977;28;20243;-79
2023/07/16 00:49:18;;;;;;;1.58;1.20;;;;;;;;;;5013918;28;20227;-78
2023/07/16 00:51:44;;;;;;;2.45;1.00;;;;;;;;;;5021366;28;20226;-78
2023/07/16 00:54:12;;;;;;;1.77;1.20;;;;;;;;;;5028546;28;20608;-78
2023/07/16 00:56:39;;;;;;;1.45;1.20;;;;;;;;;;5003206;28;20224;-79
2023/07/16 00:59:05;;;;;;;1.60;1.15;;;;;;;;;;5013966;28;20708;-79
2023/07/16 01:01:30;;;;;;;1.92;1.10;;;;;;;;;;5028616;28;20281;-79
2023/07/16 01:03:58;;;;;;;1.10;1.00;;;;;;;;;;4999805;28;20241;-78
2023/07/16 01:06:34;;;;;;;2.30;1.20;;;;;;;;;;5034859;28;20220;-78
2023/07/16 01:09:14;;;;;;;0.80;0.80;;;;;;;;;;5001017;28;20227;-78
2023/07/16 01:11:39;;;;;;;2.13;1.20;;;;;;;;;;5036114;28;20223;-79
2023/07/16 01:14:07;;;;;;;1.40;1.15;;;;;;;;;;4998866;28;20230;-78
2023/07/16 01:16:33;;;;;;;1.13;0.88;;;;;;;;;;4990205;28;20220;-78
2023/07/16 01:19:01;;;;;;;4.32;1.33;;;;;;;;;;5031487;28;20965;-78
2023/07/16 01:21:31;;;;;;;1.50;1.13;;;;;;;;;;5012505;28;20208;-78
2023/07/16 01:24:24;;;;;;;2.22;1.35;;;;;;;;;;4979950;28;20223;-78
2023/07/16 01:26:58;;;;;;;1.30;1.20;;;;;;;;;;5005483;28;20227;-78
2023/07/16 01:29:32;;;;;;;1.70;1.38;;;;;;;;;;5031899;28;20228;-79
2023/07/16 01:32:03;;;;;;;2.75;1.20;;;;;;;;;;5025181;28;20232;-79
2023/07/16 01:34:33;;;;;;;1.63;1.08;;;;;;;;;;4972961;28;20272;-79
2023/07/16 01:37:01;;;;;;;2.33;1.38;;;;;;;;;;5027101;28;20219;-78
2023/07/16 01:39:27;;;;;;;5.25;1.38;;;;;;;;;;5024563;28;20747;-79
2023/07/16 01:41:53;;;;;;;2.35;1.40;;;;;;;;;;5000126;28;20306;-79
2023/07/16 01:44:21;;;;;;;1.70;1.27;;;;;;;;;;4972135;28;20228;-78
2023/07/16 01:47:11;;;;;;;4.85;1.10;;;;;;;;;;5005091;28;20219;-78
2023/07/16 01:49:39;;;;;;;2.55;1.13;;;;;;;;;;5037445;28;20232;-78
2023/07/16 01:52:05;;;;;;;3.67;1.20;;;;;;;;;;5006621;28;20279;-78
2023/07/16 01:54:32;;;;;;;1.60;1.23;;;;;;;;;;5038284;28;20216;-78
2023/07/16 01:56:58;;;;;;;1.92;1.38;;;;;;;;;;5051194;28;20216;-78
2023/07/16 01:59:23;;;;;;;3.70;1.10;;;;;;;;;;5003711;28;20232;-79
2023/07/16 02:01:51;;;;;;;1.42;1.20;;;;;;;;;;5006199;28;20234;-77
2023/07/16 02:04:17;;;;;;;3.25;1.17;;;;;;;;;;5016588;28;20224;-78
2023/07/16 02:06:44;;;;;;;2.25;1.40;;;;;;;;;;5032114;28;20651;-78
2023/07/16 02:09:12;;;;;;;1.10;1.10;;;;;;;;;;5046862;28;20228;-78
2023/07/16 02:11:38;;;;;;;1.58;1.38;;;;;;;;;;5028168;28;20235;-78
2023/07/16 02:14:03;;;;;;;2.25;1.60;;;;;;;;;;5020642;28;20238;-78
2023/07/16 02:16:29;;;;;;;3.38;1.23;;;;;;;;;;5000042;28;20215;-78
2023/07/16 02:18:56;;;;;;;1.52;1.30;;;;;;;;;;5031203;28;20581;-78
2023/07/16 02:21:22;;;;;;;1.88;1.42;;;;;;;;;;4992890;28;20221;-78
2023/07/16 02:23:52;;;;;;;1.90;1.40;;;;;;;;;;5024141;28;20216;-78
2023/07/16 02:26:18;;;;;;;1.30;1.20;;;;;;;;;;5004647;28;20780;-78
2023/07/16 02:28:43;;;;;;;2.33;1.58;;;;;;;;;;5015052;28;20235;-78
2023/07/16 02:31:12;;;;;;;5.15;1.63;;;;;;;;;;5013398;28;20269;-78
2023/07/16 02:33:42;;;;;;;2.13;1.45;;;;;;;;;;5025150;28;20224;-78
2023/07/16 02:36:10;;;;;;;2.28;1.70;;;;;;;;;;5009025;28;20227;-78
2023/07/16 02:38:38;;;;;;;5.75;1.63;;;;;;;;;;5025164;28;20223;-79
2023/07/16 02:41:03;;;;;;;2.35;1.42;;;;;;;;;;5012847;28;20220;-78
2023/07/16 02:43:34;;;;;;;3.38;1.40;;;;;;;;;;5026342;28;20634;-78
2023/07/16 02:46:06;;;;;;;2.65;1.75;;;;;;;;;;5008178;28;20258;-77
2023/07/16 02:48:34;;;;;;;3.47;2.00;;;;;;;;;;5039503;28;20287;-78
2023/07/16 02:51:01;;;;;;;3.35;1.60;;;;;;;;;;5009434;28;20236;-78
2023/07/16 02:53:27;;;;;;;3.53;1.63;;;;;;;;;;5009175;28;20637;-77
2023/07/16 02:55:54;;;;;;;1.80;1.67;;;;;;;;;;5017096;28;20269;-77
2023/07/16 02:58:23;;;;;;;3.58;2.00;;;;;;;;;;5027990;28;20230;-78
2023/07/16 03:00:53;;;;;;;1.83;1.42;;;;;;;;;;5019557;28;20231;-77
2023/07/16 03:03:19;;;;;;;2.35;1.70;;;;;;;;;;5012611;28;20815;-77
2023/07/16 03:05:46;;;;;;;2.35;1.63;;;;;;;;;;5024381;28;20223;-77
2023/07/16 03:08:12;;;;;;;2.50;1.77;;;;;;;;;;5004259;28;20212;-78
2023/07/16 03:10:42;;;;;;;2.28;1.65;;;;;;;;;;5028554;28;20219;-77
2023/07/16 03:13:12;;;;;;;2.67;1.75;;;;;;;;;;5010944;28;20720;-77
2023/07/16 03:15:40;;;;;;;2.30;1.67;;;;;;;;;;5029348;28;20231;-77
2023/07/16 03:18:06;;;;;;;2.15;1.67;;;;;;;;;;5054911;28;20314;-77
2023/07/16 03:20:32;;;;;;;4.85;1.88;;;;;;;;;;5029066;28;20273;-78
2023/07/16 03:22:59;;;;;;;2.25;1.63;;;;;;;;;;5028473;28;20592;-78
2023/07/16 03:25:25;;;;;;;2.50;1.75;;;;;;;;;;5013575;28;20302;-78
2023/07/16 03:27:51;;;;;;;2.75;1.90;;;;;;;;;;5029886;28;20223;-78
2023/07/16 03:30:19;;;;;;;2.78;1.70;;;;;;;;;;5012784;28;20228;-78
2023/07/16 03:32:47;;;;;;;2.15;1.70;;;;;;;;;;5039390;28;20323;-78
2023/07/16 03:35:12;;;;;;;2.28;1.83;;;;;;;;;;5015547;28;20226;-77
2023/07/16 03:37:38;;;;;;;3.10;2.00;;;;;;;;;;5026289;28;20227;-78
2023/07/16 03:40:14;;;;;;;3.38;2.00;;;;;;;;;;5023020;28;20223;-77
2023/07/16 03:42:43;;;;;;;3.83;1.55;;;;;;;;;;5038853;28;20227;-77
2023/07/16 03:45:12;;;;;;;3.35;2.00;;;;;;;;;;5037637;28;20275;-78
2023/07/16 03:47:37;;;;;;;2.63;1.70;;;;;;;;;;5039553;28;20231;-77
2023/07/16 03:50:03;;;;;;;2.85;1.80;;;;;;;;;;5017891;28;20228;-78
2023/07/16 03:52:29;;;;;;;5.38;2.20;;;;;;;;;;5031282;28;20732;-78
2023/07/16 03:54:54;;;;;;;2.08;1.70;;;;;;;;;;5019424;28;20298;-78
2023/07/16 03:57:23;;;;;;;3.88;2.03;;;;;;;;;;5031078;28;20246;-77
2023/07/16 03:59:48;;;;;;;3.55;1.70;;;;;;;;;;5041735;28;20295;-78
2023/07/16 04:06:11;;;;;;;2.40;1.70;;;;;;;;;;5053019;28;20306;-78
2023/07/16 04:08:37;;;;;;;4.15;1.65;;;;;;;;;;5024343;28;20222;-79
2023/07/16 04:11:05;;;;;;;4.90;1.90;;;;;;;;;;5025961;28;20223;-79
2023/07/16 04:13:33;;;;;;;2.00;1.60;;;;;;;;;;4999652;28;20226;-78
2023/07/16 04:15:59;;;;;;;3.30;1.83;;;;;;;;;;5027507;28;20259;-78
2023/07/16 04:18:27;;;;;;;2.35;1.60;;;;;;;;;;5027231;28;20237;-77
2023/07/16 04:20:52;;;;;;;2.53;1.98;;;;;;;;;;5012207;28;20223;-78
2023/07/16 04:23:18;;;;;;;2.35;1.70;;;;;;;;;;5023847;28;20211;-78
2023/07/16 04:25:46;;;;;;;2.47;1.70;;;;;;;;;;5041791;28;20362;-78
2023/07/16 04:28:16;;;;;;;4.28;1.52;;;;;;;;;;5013007;28;20307;-78
2023/07/16 04:30:44;;;;;;;2.05;1.50;;;;;;;;;;5013740;28;21048;-78
2023/07/16 04:33:10;;;;;;;3.30;1.88;;;;;;;;;;5040911;28;20542;-79
2023/07/16 04:35:35;;;;;;;3.33;1.92;;;;;;;;;;5025799;28;20223;-78
2023/07/16 04:38:03;;;;;;;2.00;1.70;;;;;;;;;;5009276;28;20231;-79
2023/07/16 04:40:31;;;;;;;2.03;1.83;;;;;;;;;;5003742;28;20307;-78
2023/07/16 04:42:56;;;;;;;6.25;2.05;;;;;;;;;;5030467;28;20590;-78
2023/07/16 04:45:25;;;;;;;2.67;1.85;;;;;;;;;;5032008;28;20236;-76
2023/07/16 04:47:50;;;;;;;2.40;1.70;;;;;;;;;;5040461;28;20232;-79
2023/07/16 04:50:18;;;;;;;4.32;2.25;;;;;;;;;;5015763;28;20225;-78
2023/07/16 04:52:46;;;;;;;4.65;2.03;;;;;;;;;;5020387;28;20208;-78
2023/07/16 04:55:15;;;;;;;2.05;1.80;;;;;;;;;;5039141;28;20284;-79
2023/07/16 04:57:40;;;;;;;2.35;1.73;;;;;;;;;;4996997;28;20238;-77
2023/07/16 05:00:07;;;;;;;2.20;1.77;;;;;;;;;;5021352;28;20220;-77
2023/07/16 05:02:33;;;;;;;5.05;1.80;;;;;;;;;;5054571;28;20227;-78
2023/07/16 05:04:58;;;;;;;2.40;1.73;;;;;;;;;;5000404;28;20217;-79
2023/07/16 05:07:24;;;;;;;3.58;1.80;;;;;;;;;;5051174;28;20568;-80
2023/07/16 05:09:49;;;;;;;2.95;1.90;;;;;;;;;;5047664;28;20216;-79
2023/07/16 05:12:22;;;;;;;2.00;1.80;;;;;;;;;;5035744;28;20223;-79
2023/07/16 05:14:48;;;;;;;3.13;1.70;;;;;;;;;;5020130;28;20272;-77
2023/07/16 05:17:14;;;;;;;3.30;1.90;;;;;;;;;;5028667;28;20275;-75
2023/07/16 05:19:41;;;;;;;2.38;1.98;;;;;;;;;;4992234;28;20232;-78
2023/07/16 05:22:07;;;;;;;2.35;1.80;;;;;;;;;;4999247;28;20231;-79
2023/07/16 05:24:32;;;;;;;2.55;1.75;;;;;;;;;;4987979;28;20220;-79
2023/07/16 05:26:58;;;;;;;3.38;2.00;;;;;;;;;;4983960;28;20295;-79
2023/07/16 05:29:24;;;;;;;2.58;1.80;;;;;;;;;;4989280;28;20742;-78
2023/07/16 05:31:51;;;;;;;2.38;1.90;;;;;;;;;;5018642;28;20310;-77
2023/07/16 05:34:20;;;;;;;2.20;1.95;;;;;;;;;;5016889;28;20220;-79
2023/07/16 05:36:55;;;;;;;3.25;2.00;;;;;;;;;;5008702;28;20270;-80
2023/07/16 05:39:23;;;;;;;2.95;1.98;;;;;;;;;;5026191;28;20250;-78
2023/07/16 05:41:48;;;;;;;6.30;2.10;;;;;;;;;;5016924;28;20243;-78
2023/07/16 05:44:14;;;;;;;2.78;1.63;;;;;;;;;;5038482;28;20234;-78
2023/07/16 05:46:39;;;;;;;3.97;2.15;;;;;;;;;;5024724;28;20271;-79
2023/07/16 05:49:08;;;;;;;2.38;1.80;;;;;;;;;;5023380;28;20224;-78
2023/07/16 05:51:33;;;;;;;3.67;2.15;;;;;;;;;;5039464;28;20219;-77
2023/07/16 05:53:59;;;;;;;3.97;2.15;;;;;;;;;;5009136;28;20266;-78
2023/07/16 05:56:26;;;;;;;4.65;1.90;;;;;;;;;;5012899;28;20358;-78
2023/07/16 05:58:52;;;;;;;4.72;2.42;;;;;;;;;;5015272;28;20697;-80
2023/07/16 06:01:22;;;;;;;2.33;1.98;;;;;;;;;;5008466;28;20216;-79
2023/07/16 06:03:50;;;;;;;3.75;2.13;;;;;;;;;;5023748;28;20387;-78
2023/07/16 06:06:16;;;;;;;2.45;1.83;;;;;;;;;;5005929;28;20223;-78
2023/07/16 06:08:41;;;;;;;2.20;1.77;;;;;;;;;;5008898;28;20215;-78
2023/07/16 06:11:06;;;;;;;6.30;2.40;;;;;;;;;;5041546;28;20246;-80
2023/07/16 06:13:32;;;;;;;3.33;2.13;;;;;;;;;;4999742;28;20595;-79
2023/07/16 06:15:58;;;;;;;3.85;2.17;;;;;;;;;;5026183;28;20211;-77
2023/07/16 06:18:23;;;;;;;2.45;2.00;;;;;;;;;;5015062;28;20232;-80
2023/07/16 06:20:50;;;;;;;5.93;2.20;;;;;;;;;;4995160;28;20979;-79
2023/07/16 06:23:16;;;;;;;4.72;1.92;;;;;;;;;;5026242;28;20228;-78
2023/07/16 06:25:44;;;;;;;2.65;2.08;;;;;;;;;;4999494;28;20533;-79
2023/07/16 06:28:12;;;;;;;2.58;1.83;;;;;;;;;;5029433;28;20208;-78
2023/07/16 06:30:40;;;;;;;2.30;2.10;;;;;;;;;;5037427;28;20719;-77
2023/07/16 06:33:05;;;;;;;2.13;1.42;;;;;;;;;;5037978;28;20788;-79
2023/07/16 06:35:33;;;;;;;3.35;2.05;;;;;;;;;;5007781;28;20212;-77
2023/07/16 06:37:58;;;;;;;4.40;1.95;;;;;;;;;;4998210;28;20219;-78
2023/07/16 06:40:24;;;;;;;3.08;1.85;;;;;;;;;;5024473;28;20595;-78
2023/07/16 06:42:55;;;;;;;2.67;1.67;;;;;;;;;;5028850;28;20637;-78
2023/07/16 06:45:23;;;;;;;2.17;1.70;;;;;;;;;;5043429;28;20262;-78
2023/07/16 06:47:50;;;;;;;3.42;1.90;;;;;;;;;;5043285;28;20577;-77
2023/07/16 06:50:16;;;;;;;4.40;1.77;;;;;;;;;;5024924;28;20250;-75
2023/07/16 06:52:42;;;;;;;5.28;1.98;;;;;;;;;;5033012;28;20215;-79
2023/07/16 06:55:07;;;;;;;5.50;1.70;;;;;;;;;;5032345;28;20226;-77
2023/07/16 06:57:35;;;;;;;1.73;1.58;;;;;;;;;;5011160;28;20231;-76
2023/07/16 07:00:01;;;;;;;4.53;1.95;;;;;;;;;;5025776;28;20215;-80
2023/07/16 07:02:32;;;;;;;3.67;1.95;;;;;;;;;;5012818;28;20302;-79
2023/07/16 07:05:00;;;;;;;3.60;1.80;;;;;;;;;;5040164;28;20219;-78
2023/07/16 07:07:28;;;;;;;4.35;1.98;;;;;;;;;;5013830;28;20223;-77
2023/07/16 07:09:58;;;;;;;3.55;1.85;;;;;;;;;;5014949;28;20269;-78
2023/07/16 07:12:23;;;;;;;4.50;2.00;;;;;;;;;;5006512;28;20224;-77
2023/07/16 07:14:49;;;;;;;3.55;2.00;;;;;;;;;;5007688;28;20222;-78
2023/07/16 07:17:15;;;;;;;4.95;1.65;;;;;;;;;;5024580;28;20232;-76
2023/07/16 07:19:41;;;;;;;3.25;2.00;;;;;;;;;;5038828;28;20215;-77
2023/07/16 07:22:06;;;;;;;4.45;1.80;;;;;;;;;;5022368;28;20223;-78
2023/07/16 07:24:34;;;;;;;2.70;1.90;;;;;;;;;;5015701;28;20232;-80
2023/07/16 07:27:07;;;;;;;4.10;1.95;;;;;;;;;;5013964;28;20390;-78
2023/07/16 07:29:33;;;;;;;7.00;2.25;;;;;;;;;;5025866;28;20219;-78
2023/07/16 07:31:59;;;;;;;5.40;2.20;;;;;;;;;;5024010;28;20262;-81
2023/07/16 07:34:25;;;;;;;2.65;1.85;;;;;;;;;;4978824;28;20860;-77
2023/07/16 07:36:53;;;;;;;2.80;1.73;;;;;;;;;;5028978;28;20216;-80
2023/07/16 07:39:18;;;;;;;2.53;1.88;;;;;;;;;;5026598;28;20228;-78
2023/07/16 07:41:44;;;;;;;2.42;1.70;;;;;;;;;;5029383;28;20674;-78
2023/07/16 07:44:12;;;;;;;3.75;2.03;;;;;;;;;;5028855;28;20216;-77
2023/07/16 07:46:37;;;;;;;4.40;2.00;;;;;;;;;;4988798;28;20238;-78
2023/07/16 07:49:03;;;;;;;3.08;1.95;;;;;;;;;;5039831;28;20711;-78
2023/07/16 07:51:31;;;;;;;3.08;2.30;;;;;;;;;;4997607;28;20230;-78
2023/07/16 07:53:56;;;;;;;3.20;2.20;;;;;;;;;;5028181;28;20234;-77
2023/07/16 07:56:22;;;;;;;2.67;1.90;;;;;;;;;;5049799;28;20877;-76
2023/07/16 07:58:47;;;;;;;5.10;2.00;;;;;;;;;;5051641;28;20225;-79
2023/07/16 08:01:15;;;;;;;5.35;2.22;;;;;;;;;;5035285;28;20230;-75
2023/07/16 08:03:41;;;;;;;3.85;2.03;;;;;;;;;;5027445;28;20242;-77
2023/07/16 08:06:06;;;;;;;4.38;2.08;;;;;;;;;;5042009;28;20234;-77
2023/07/16 08:08:32;;;;;;;3.85;2.00;;;;;;;;;;5019022;28;20234;-78
2023/07/16 08:11:00;;;;;;;4.90;1.73;;;;;;;;;;5029591;28;20684;-76
2023/07/16 08:13:25;;;;;;;2.45;2.10;;;;;;;;;;5041563;28;20311;-76
2023/07/16 08:15:51;;;;;;;4.50;2.10;;;;;;;;;;5021701;28;20246;-77
2023/07/16 08:18:16;;;;;;;3.90;1.95;;;;;;;;;;5011990;28;20234;-77
2023/07/16 08:20:42;;;;;;;3.67;2.15;;;;;;;;;;5019124;28;20356;-79
2023/07/16 08:23:10;;;;;;;5.00;2.10;;;;;;;;;;5034897;28;20223;-78
2023/07/16 08:25:36;;;;;;;6.25;2.42;;;;;;;;;;5011083;28;20510;-77
2023/07/16 08:28:11;;;;;;;3.72;2.10;;;;;;;;;;5034762;28;20204;-79
2023/07/16 08:30:37;;;;;;;4.78;2.22;;;;;;;;;;5028601;28;20318;-78
2023/07/16 08:33:04;;;;;;;2.97;2.08;;;;;;;;;;5031349;28;20717;-78
2023/07/16 08:35:32;;;;;;;4.00;1.90;;;;;;;;;;5025697;28;20222;-79
2023/07/16 08:38:02;;;;;;;3.50;2.05;;;;;;;;;;5026484;28;20212;-79
2023/07/16 08:40:30;;;;;;;4.57;2.20;;;;;;;;;;5026073;28;20212;-80
2023/07/16 08:42:56;;;;;;;4.78;2.60;;;;;;;;;;5014723;28;20601;-80
2023/07/16 08:45:23;;;;;;;4.25;2.40;;;;;;;;;;5015925;28;20227;-78
2023/07/16 08:47:51;;;;;;;2.75;2.20;;;;;;;;;;5021326;28;20703;-78
2023/07/16 08:50:16;;;;;;;4.10;2.47;;;;;;;;;;5026480;28;20327;-76
2023/07/16 08:52:43;;;;;;;3.53;2.53;;;;;;;;;;5033652;28;20219;-78
2023/07/16 08:55:08;;;;;;;7.20;2.63;;;;;;;;;;5008727;28;20259;-79
2023/07/16 08:57:34;;;;;;;3.88;2.63;;;;;;;;;;5015795;28;20236;-81
2023/07/16 09:00:00;;;;;;;4.00;2.83;;;;;;;;;;5021352;28;20245;-78
2023/07/16 09:02:25;;;;;;;5.47;2.90;;;;;;;;;;5011092;28;20224;-77
2023/07/16 09:04:51;;;;;;;5.00;2.60;;;;;;;;;;5015208;28;20215;-78
2023/07/16 09:07:19;;;;;;;5.38;2.55;;;;;;;;;;5026979;28;20226;-78
2023/07/16 09:09:57;;;;;;;7.13;3.08;;;;;;;;;;5017296;28;20291;-79
2023/07/16 09:12:23;;;;;;;3.83;2.60;;;;;;;;;;5017954;28;20235;-78
2023/07/16 09:14:49;;;;;;;4.82;2.85;;;;;;;;;;5034796;28;20211;-79
2023/07/16 09:17:22;;;;;;;4.28;2.70;;;;;;;;;;5041955;28;20652;-78
2023/07/16 09:19:48;;;;;;;3.95;3.22;;;;;;;;;;5006394;28;20978;-79
2023/07/16 09:22:14;;;;;;;5.57;2.97;;;;;;;;;;4992838;28;20514;-79
2023/07/16 09:24:39;;;;;;;5.78;3.10;;;;;;;;;;5033859;28;20236;-79
2023/07/16 09:27:05;;;;;;;5.18;2.78;;;;;;;;;;5027683;28;20223;-79
2023/07/16 09:29:30;;;;;;;6.00;2.80;;;;;;;;;;5028245;28;20250;-79
2023/07/16 09:32:04;;;;;;;6.82;2.90;;;;;;;;;;5011723;28;20232;-79
2023/07/16 09:34:32;;;;;;;5.32;2.90;;;;;;;;;;5020249;28;20322;-80
2023/07/16 09:37:01;;;;;;;4.25;3.40;;;;;;;;;;5029637;28;20596;-79
2023/07/16 09:39:27;;;;;;;4.38;2.97;;;;;;;;;;5021549;28;20246;-79
2023/07/16 09:41:52;;;;;;;6.30;3.17;;;;;;;;;;5012185;28;20235;-79
2023/07/16 09:44:22;;;;;;;5.13;2.95;;;;;;;;;;5000918;28;21025;-80
2023/07/16 09:46:50;;;;;;;4.13;2.90;;;;;;;;;;5024166;28;20219;-80
2023/07/16 09:49:19;;;;;;;5.25;2.95;;;;;;;;;;5010006;28;20290;-80
2023/07/16 09:51:45;;;;;;;4.38;2.65;;;;;;;;;;5041244;28;20645;-79
2023/07/16 09:54:13;;;;;;;2.83;2.63;;;;;;;;;;5014781;28;20306;-79
2023/07/16 09:56:48;;;;;;;4.90;3.08;;;;;;;;;;5029219;28;20766;-77
2023/07/16 09:59:15;;;;;;;4.80;3.10;;;;;;;;;;5016293;28;20227;-79
2023/07/16 10:01:41;;;;;;;4.25;3.00;;;;;;;;;;5023188;28;20278;-78
2023/07/16 10:04:13;;;;;;;2.78;2.20;;;;;;;;;;5012785;28;20747;-79
2023/07/16 10:06:57;;;;;;;4.70;2.90;;;;;;;;;;4993359;28;20219;-79
2023/07/16 10:09:43;;;;;;;2.95;2.65;;;;;;;;;;5028244;28;20239;-78
2023/07/16 10:12:16;;;;;;;3.88;2.88;;;;;;;;;;5023662;28;20211;-78
2023/07/16 10:14:42;;;;;;;4.03;2.72;;;;;;;;;;5025048;28;20223;-78
2023/07/16 10:17:15;;;;;;;3.33;2.90;;;;;;;;;;5000083;28;20303;-78
2023/07/16 10:20:07;;;;;;;3.72;2.85;;;;;;;;;;5014286;28;20227;-78
2023/07/16 10:22:32;;;;;;;3.72;2.95;;;;;;;;;;5029196;28;20224;-79
2023/07/16 10:25:05;;;;;;;6.18;3.00;;;;;;;;;;5015138;28;20331;-78
2023/07/16 10:27:33;;;;;;;7.63;3.33;;;;;;;;;;4986445;28;20233;-79
2023/07/16 10:30:03;;;;;;;6.00;2.85;;;;;;;;;;4990854;28;20282;-78
2023/07/16 10:32:31;;;;;;;5.13;2.85;;;;;;;;;;5007413;28;20752;-78
2023/07/16 10:34:57;;;;;;;3.72;2.92;;;;;;;;;;5012942;28;20690;-78
2023/07/16 10:37:23;;;;;;;5.18;3.13;;;;;;;;;;4973396;28;20227;-79
2023/07/16 10:39:49;;;;;;;4.50;2.88;;;;;;;;;;4990178;28;20227;-80
2023/07/16 10:42:17;;;;;;;4.00;2.75;;;;;;;;;;5032854;28;20242;-78
2023/07/16 10:44:43;;;;;;;3.35;2.80;;;;;;;;;;5020960;28;20226;-80
2023/07/16 10:47:10;;;;;;;3.55;2.40;;;;;;;;;;5012037;28;20216;-77
2023/07/16 10:49:35;;;;;;;4.60;2.60;;;;;;;;;;5027658;28;20231;-80
2023/07/16 10:52:01;;;;;;;2.83;2.33;;;;;;;;;;5022808;28;20220;-79
2023/07/16 10:54:32;;;;;;;4.30;2.50;;;;;;;;;;5029158;28;20224;-77
2023/07/16 10:56:57;;;;;;;5.20;2.47;;;;;;;;;;5030458;28;20216;-78
2023/07/16 10:59:23;;;;;;;5.80;2.78;;;;;;;;;;5025813;28;20234;-77
2023/07/16 11:01:50;;;;;;;5.00;2.85;;;;;;;;;;5044826;28;20243;-77
2023/07/16 11:04:19;;;;;;;2.85;2.38;;;;;;;;;;4999153;28;20688;-78
2023/07/16 11:06:45;;;;;;;5.32;3.10;;;;;;;;;;5032253;28;20236;-79
2023/07/16 11:09:10;;;;;;;5.57;2.55;;;;;;;;;;5028387;28;20238;-78
2023/07/16 11:11:36;;;;;;;2.72;2.53;;;;;;;;;;5027103;28;20238;-80
2023/07/16 11:14:05;;;;;;;4.57;2.58;;;;;;;;;;5016374;28;20234;-78
2023/07/16 11:16:37;;;;;;;4.97;2.65;;;;;;;;;;5008655;28;20231;-77
2023/07/16 11:19:05;;;;;;;3.53;2.47;;;;;;;;;;5026192;28;20231;-80
2023/07/16 11:21:30;;;;;;;3.65;2.15;;;;;;;;;;5014721;28;20219;-77
2023/07/16 11:24:09;;;;;;;6.25;2.38;;;;;;;;;;5028772;28;20215;-78
2023/07/16 11:26:39;;;;;;;2.65;2.20;;;;;;;;;;5024544;28;20323;-80
2023/07/16 11:29:14;;;;;;;4.25;2.10;;;;;;;;;;5014041;28;20572;-78
2023/07/16 11:31:42;;;;;;;2.75;2.10;;;;;;;;;;5031487;28;20230;-78
2023/07/16 11:34:12;;;;;;;3.03;2.20;;;;;;;;;;5008337;28;20227;-78
2023/07/16 11:36:38;;;;;;;4.88;2.58;;;;;;;;;;5020257;28;20302;-80
2023/07/16 11:39:04;;;;;;;3.95;2.40;;;;;;;;;;5011116;28;20216;-79
2023/07/16 11:41:32;;;;;;;4.00;2.72;;;;;;;;;;5042448;28;20234;-79
2023/07/16 11:44:01;;;;;;;5.00;2.30;;;;;;;;;;5024409;28;20250;-80
2023/07/16 11:46:33;;;;;;;4.28;2.30;;;;;;;;;;5008679;28;20227;-79
2023/07/16 11:49:00;;;;;;;4.85;2.35;;;;;;;;;;5024350;28;20238;-79
2023/07/16 11:51:29;;;;;;;2.85;2.08;;;;;;;;;;5015125;28;20271;-80
2023/07/16 11:53:57;;;;;;;4.75;2.20;;;;;;;;;;5030988;28;20223;-79
2023/07/16 11:56:23;;;;;;;3.30;2.25;;;;;;;;;;5029322;28;20228;-79
2023/07/16 11:58:51;;;;;;;6.25;2.28;;;;;;;;;;5023428;28;20254;-80
2023/07/16 12:01:18;;;;;;;3.20;2.17;;;;;;;;;;5009450;28;20228;-80
2023/07/16 12:03:46;;;;;;;3.63;2.15;;;;;;;;;;5009617;28;20283;-80
2023/07/16 12:06:12;;;;;;;6.13;2.47;;;;;;;;;;5027447;28;20216;-78
2023/07/16 12:08:37;;;;;;;5.43;2.40;;;;;;;;;;5024944;28;20674;-80
2023/07/16 12:11:05;;;;;;;4.22;2.28;;;;;;;;;;5003487;28;20246;-79
2023/07/16 12:13:31;;;;;;;3.97;2.30;;;;;;;;;;5025543;28;20220;-77
2023/07/16 12:15:59;;;;;;;3.03;1.92;;;;;;;;;;5022829;28;20970;-80
2023/07/16 12:18:30;;;;;;;2.85;1.92;;;;;;;;;;5028851;28;20926;-78
2023/07/16 12:20:56;;;;;;;2.72;2.00;;;;;;;;;;4996468;28;20270;-79
2023/07/16 12:23:24;;;;;;;4.75;2.30;;;;;;;;;;5018148;28;20265;-78
2023/07/16 12:25:52;;;;;;;2.78;1.90;;;;;;;;;;5017446;28;20269;-79
2023/07/16 12:28:17;;;;;;;4.03;2.70;;;;;;;;;;5045624;28;20302;-77
2023/07/16 12:30:43;;;;;;;3.42;2.20;;;;;;;;;;5017474;28;20318;-77
2023/07/16 12:33:08;;;;;;;2.25;1.90;;;;;;;;;;5006977;28;20211;-78
2023/07/16 12:35:34;;;;;;;4.05;2.28;;;;;;;;;;5011428;28;20224;-76
2023/07/16 12:38:02;;;;;;;3.80;2.40;;;;;;;;;;5032530;28;20224;-77
2023/07/16 12:40:31;;;;;;;2.72;2.30;;;;;;;;;;5015822;28;20715;-77
2023/07/16 12:42:56;;;;;;;4.32;2.20;;;;;;;;;;5016590;28;20307;-77
2023/07/16 12:45:24;;;;;;;3.15;2.38;;;;;;;;;;4990161;28;20232;-77
2023/07/16 12:47:54;;;;;;;4.47;2.22;;;;;;;;;;5025859;28;20227;-77
2023/07/16 12:50:20;;;;;;;4.85;2.35;;;;;;;;;;5016303;28;20231;-77
2023/07/16 12:52:45;;;;;;;2.72;2.08;;;;;;;;;;5026013;28;20207;-78
2023/07/16 12:55:11;;;;;;;3.72;2.45;;;;;;;;;;5029108;28;20271;-80
2023/07/16 12:57:36;;;;;;;4.43;2.00;;;;;;;;;;5017993;28;20244;-78
2023/07/16 13:00:05;;;;;;;3.88;2.35;;;;;;;;;;5017452;28;20257;-77
2023/07/16 13:02:33;;;;;;;2.67;2.25;;;;;;;;;;5017092;28;20223;-78
2023/07/16 13:04:58;;;;;;;6.50;2.58;;;;;;;;;;5043718;28;20283;-80
2023/07/16 13:07:24;;;;;;;2.70;2.00;;;;;;;;;;5016506;28;20228;-78
2023/07/16 13:09:52;;;;;;;2.72;2.35;;;;;;;;;;5007871;28;20656;-77
2023/07/16 13:12:20;;;;;;;2.72;2.20;;;;;;;;;;5027172;28;20624;-80
2023/07/16 13:14:45;;;;;;;4.20;2.83;;;;;;;;;;5017938;28;20321;-79
2023/07/16 13:17:11;;;;;;;3.53;2.47;;;;;;;;;;5010981;28;20216;-79
2023/07/16 13:19:37;;;;;;;2.88;2.40;;;;;;;;;;5045872;28;20224;-79
2023/07/16 13:22:02;;;;;;;3.10;2.35;;;;;;;;;;5028760;28;20541;-80
2023/07/16 13:24:28;;;;;;;2.55;2.35;;;;;;;;;;5046661;28;20224;-80
2023/07/16 13:26:53;;;;;;;5.25;2.20;;;;;;;;;;5029027;28;20247;-78
2023/07/16 13:29:21;;;;;;;3.05;2.45;;;;;;;;;;5006727;28;20235;-79
2023/07/16 13:31:46;;;;;;;3.70;2.28;;;;;;;;;;4998605;28;20223;-79
2023/07/16 13:34:15;;;;;;;3.25;2.40;;;;;;;;;;5006806;28;20220;-79
2023/07/16 13:36:40;;;;;;;4.90;2.35;;;;;;;;;;4991046;28;20220;-80
2023/07/16 13:39:13;;;;;;;3.60;2.30;;;;;;;;;;5011684;28;20213;-77
2023/07/16 13:41:39;;;;;;;2.88;2.13;;;;;;;;;;5023781;28;20215;-79
2023/07/16 13:44:04;;;;;;;3.30;2.35;;;;;;;;;;5026057;28;20223;-79
2023/07/16 13:46:30;;;;;;;4.53;2.67;;;;;;;;;;5027317;28;20226;-81
2023/07/16 13:48:56;;;;;;;3.20;2.10;;;;;;;;;;5025629;28;20212;-80
2023/07/16 13:51:22;;;;;;;3.88;2.03;;;;;;;;;;5025164;28;20224;-80
2023/07/16 13:53:50;;;;;;;3.20;2.20;;;;;;;;;;5042532;28;20227;-80
2023/07/16 13:56:18;;;;;;;4.15;2.72;;;;;;;;;;5047119;28;20331;-79
2023/07/16 13:58:44;;;;;;;3.10;2.30;;;;;;;;;;5031618;28;20586;-79
2023/07/16 14:01:11;;;;;;;4.65;2.20;;;;;;;;;;4992221;28;20211;-79
2023/07/16 14:03:39;;;;;;;4.85;2.10;;;;;;;;;;5026928;28;20671;-78
2023/07/16 14:06:07;;;;;;;3.08;2.42;;;;;;;;;;5016320;28;20219;-77
2023/07/16 14:08:34;;;;;;;4.40;2.20;;;;;;;;;;5023637;28;20228;-78
2023/07/16 14:11:00;;;;;;;2.95;2.10;;;;;;;;;;4993336;28;20223;-79
2023/07/16 14:13:27;;;;;;;4.93;2.28;;;;;;;;;;5008630;28;20228;-77
2023/07/16 14:15:55;;;;;;;3.72;2.50;;;;;;;;;;5024551;28;20216;-78
2023/07/16 14:18:26;;;;;;;3.47;2.17;;;;;;;;;;5022109;28;20239;-78
2023/07/16 14:20:54;;;;;;;4.35;2.35;;;;;;;;;;5025646;28;20308;-78
2023/07/16 14:23:19;;;;;;;4.03;1.88;;;;;;;;;;5025272;28;20219;-78
2023/07/16 14:25:45;;;;;;;4.03;2.10;;;;;;;;;;5041702;28;20273;-77
2023/07/16 14:28:13;;;;;;;3.53;2.35;;;;;;;;;;5009534;28;20219;-76
2023/07/16 14:30:41;;;;;;;2.50;2.00;;;;;;;;;;5033271;28;20243;-79
2023/07/16 14:33:06;;;;;;;6.75;2.20;;;;;;;;;;5042565;28;20223;-78
2023/07/16 14:35:36;;;;;;;3.38;2.05;;;;;;;;;;5033206;28;20222;-77
2023/07/16 14:38:01;;;;;;;2.58;2.10;;;;;;;;;;5031824;28;20779;-78
2023/07/16 14:40:27;;;;;;;3.38;2.35;;;;;;;;;;5040432;28;20223;-79
2023/07/16 14:42:52;;;;;;;2.28;2.08;;;;;;;;;;5004516;28;20621;-77
2023/07/16 14:45:22;;;;;;;3.08;2.10;;;;;;;;;;5040447;28;20226;-80
2023/07/16 14:47:48;;;;;;;2.97;2.38;;;;;;;;;;5016337;28;20689;-78